createdAt,value
2019-02-20T00:00:27.297Z,31.60
2019-02-20T00:02:57.703Z,33.13
2019-02-20T00:05:29.682Z,32.05
2019-02-20T00:08:00.272Z,33.20
2019-02-20T00:10:32.621Z,30.93
2019-02-20T00:13:05.989Z,33.50
2019-02-20T00:15:38.641Z,32.53
2019-02-20T00:20:44.813Z,33.37
2019-02-20T00:23:16.752Z,32.47
2019-02-20T00:25:45.813Z,33.98
2019-02-20T00:28:16.660Z,34.03
2019-02-20T00:30:46.312Z,34.48
2019-02-20T00:33:17.678Z,36.33
2019-02-20T00:35:47.266Z,33.30
2019-02-20T00:38:17.316Z,31.20
2019-02-20T00:40:47.333Z,31.57
2019-02-20T00:43:17.765Z,32.03
2019-02-20T00:45:53.135Z,32.30
2019-02-20T00:48:25.582Z,32.90
2019-02-20T00:50:57.506Z,35.37
2019-02-20T00:53:28.967Z,32.10
2019-02-20T00:55:59.378Z,31.90
2019-02-20T00:58:29.296Z,39.10
2019-02-20T01:00:59.825Z,34.70
2019-02-20T01:03:29.572Z,35.23
2019-02-20T01:06:00.930Z,32.50
2019-02-20T01:08:31.722Z,35.23
2019-02-20T01:11:08.051Z,33.13
2019-02-20T01:13:38.814Z,34.07
2019-02-20T01:16:12.157Z,32.17
2019-02-20T01:18:43.283Z,31.63
2019-02-20T01:21:20.014Z,33.63
2019-02-20T01:23:50.787Z,36.10
2019-02-20T01:26:20.642Z,34.43
2019-02-20T01:28:51.319Z,38.03
2019-02-20T01:31:21.844Z,32.10
2019-02-20T01:33:51.501Z,32.85
2019-02-20T01:36:22.288Z,31.17
2019-02-20T01:38:53.685Z,35.00
2019-02-20T01:41:23.394Z,34.30
2019-02-20T01:43:54.782Z,37.17
2019-02-20T01:46:25.192Z,40.13
2019-02-20T01:48:55.439Z,38.60
2019-02-20T01:51:27.328Z,34.97
2019-02-20T01:53:57.678Z,34.75
2019-02-20T01:56:28.292Z,32.78
2019-02-20T01:59:00.918Z,32.03
2019-02-20T02:01:33.391Z,35.03
2019-02-20T02:04:04.361Z,37.70
2019-02-20T02:06:34.382Z,37.83
2019-02-20T02:09:06.618Z,37.77
2019-02-20T02:11:37.197Z,39.43
2019-02-20T02:14:07.630Z,36.30
2019-02-20T02:16:38.222Z,34.93
2019-02-20T02:19:09.454Z,38.57
2019-02-20T02:21:39.568Z,36.53
2019-02-20T02:24:10.798Z,31.50
2019-02-20T02:26:43.279Z,34.57
2019-02-20T02:29:14.615Z,36.40
2019-02-20T02:31:47.367Z,36.23
2019-02-20T02:34:22.067Z,35.13
2019-02-20T02:36:53.449Z,35.07
2019-02-20T02:39:24.813Z,34.23
2019-02-20T02:41:54.478Z,33.70
2019-02-20T02:44:24.310Z,35.20
2019-02-20T02:46:55.694Z,33.77
2019-02-20T02:49:26.549Z,37.60
2019-02-20T02:51:57.020Z,34.90
2019-02-20T02:54:26.286Z,33.53
2019-02-20T02:56:57.662Z,35.40
2019-02-20T02:59:28.127Z,38.33
2019-02-20T03:01:58.535Z,35.70
2019-02-20T03:04:28.896Z,35.60
2019-02-20T03:06:59.305Z,33.40
2019-02-20T03:09:27.825Z,36.83
2019-02-20T03:11:57.663Z,40.92
2019-02-20T03:14:28.501Z,44.70
2019-02-20T03:16:58.964Z,39.83
2019-02-20T03:19:29.736Z,34.37
2019-02-20T03:22:00.487Z,33.50
2019-02-20T03:24:30.351Z,38.53
2019-02-20T03:29:36.833Z,33.17
2019-02-20T03:32:09.973Z,38.13
2019-02-20T03:34:40.352Z,38.17
2019-02-20T03:37:09.449Z,38.43
2019-02-20T03:39:38.290Z,42.83
2019-02-20T03:42:07.370Z,42.07
2019-02-20T03:44:35.638Z,41.83
2019-02-20T03:49:39.703Z,39.80
2019-02-20T03:52:12.228Z,42.67
2019-02-20T03:54:41.999Z,36.70
2019-02-20T03:57:11.699Z,34.63
2019-02-20T03:59:43.024Z,34.53
2019-02-20T04:02:13.043Z,35.40
2019-02-20T04:04:44.345Z,38.10
2019-02-20T04:07:13.882Z,35.07
2019-02-20T04:09:43.971Z,42.17
2019-02-20T04:12:17.395Z,33.80
2019-02-20T04:14:47.183Z,40.33
2019-02-20T04:17:17.012Z,44.33
2019-02-20T04:19:48.368Z,41.27
2019-02-20T04:22:20.335Z,42.67
2019-02-20T04:24:49.999Z,34.20
2019-02-20T04:27:21.331Z,37.37
2019-02-20T04:29:52.091Z,44.38
2019-02-20T04:32:23.462Z,39.00
2019-02-20T04:34:54.222Z,34.27
2019-02-20T04:37:27.063Z,33.93
2019-02-20T04:39:57.710Z,35.25
2019-02-20T04:42:28.401Z,30.77
2019-02-20T04:44:58.688Z,39.17
2019-02-20T04:47:29.298Z,38.20
2019-02-20T04:49:59.184Z,39.65
2019-02-20T04:52:29.626Z,40.90
2019-02-20T04:54:59.987Z,36.10
2019-02-20T04:57:33.366Z,38.13
2019-02-20T05:00:04.114Z,39.03
2019-02-20T05:02:34.798Z,48.00
2019-02-20T05:05:11.367Z,42.87
2019-02-20T05:07:42.920Z,31.40
2019-02-20T05:10:14.125Z,44.70
2019-02-20T05:12:45.551Z,35.17
2019-02-20T05:15:15.906Z,35.43
2019-02-20T05:17:47.584Z,35.70
2019-02-20T05:20:15.869Z,32.50
2019-02-20T05:22:44.140Z,47.20
2019-02-20T05:25:14.963Z,120.17
2019-02-20T05:27:44.815Z,108.67
2019-02-20T05:30:14.442Z,125.23
2019-02-20T05:32:47.696Z,63.77
2019-02-20T05:35:18.955Z,92.37
2019-02-20T05:37:50.826Z,103.72
2019-02-20T05:40:22.158Z,68.83
2019-02-20T05:42:52.820Z,46.30
2019-02-20T05:45:24.183Z,127.40
2019-02-20T05:47:55.078Z,43.50
2019-02-20T05:50:26.286Z,51.80
2019-02-20T05:52:56.850Z,48.83
2019-02-20T05:55:28.243Z,44.13
2019-02-20T05:58:00.308Z,42.93
2019-02-20T06:00:31.060Z,106.80
2019-02-20T06:03:01.525Z,228.30
2019-02-20T06:05:32.277Z,153.27
2019-02-20T06:08:03.028Z,275.10
2019-02-20T06:10:33.839Z,317.53
2019-02-20T06:13:05.239Z,248.10
2019-02-20T06:15:36.721Z,207.50
2019-02-20T06:18:07.016Z,176.87
2019-02-20T06:20:38.486Z,389.63
2019-02-20T06:23:09.283Z,353.13
2019-02-20T06:25:40.600Z,152.10
2019-02-20T06:28:11.218Z,540.80
2019-02-20T06:30:40.237Z,522.17
2019-02-20T06:33:10.802Z,684.07
2019-02-20T06:35:40.668Z,759.80
2019-02-20T06:38:11.747Z,257.03
2019-02-20T06:40:43.318Z,202.40
2019-02-20T06:43:13.126Z,566.43
2019-02-20T06:45:43.013Z,257.27
2019-02-20T06:48:11.544Z,340.40
2019-02-20T06:50:41.823Z,416.87
2019-02-20T06:53:13.238Z,533.73
2019-02-20T06:55:47.067Z,299.37
2019-02-20T06:58:17.104Z,201.88
2019-02-20T07:00:47.720Z,233.27
2019-02-20T07:03:18.121Z,566.17
2019-02-20T07:05:49.183Z,202.00
2019-02-20T07:08:33.070Z,268.93
2019-02-20T07:11:19.741Z,256.03
2019-02-20T07:13:58.800Z,318.52
2019-02-20T07:16:32.067Z,166.53
2019-02-20T07:19:08.607Z,295.20
2019-02-20T07:22:04.315Z,375.33
2019-02-20T07:24:42.303Z,153.97
2019-02-20T07:27:18.483Z,288.40
2019-02-20T07:30:01.564Z,213.73
2019-02-20T07:32:33.961Z,237.63
2019-02-20T07:35:08.682Z,118.00
2019-02-20T07:37:38.671Z,229.37
2019-02-20T07:42:46.638Z,397.03
2019-02-20T07:45:16.689Z,197.40
2019-02-20T07:47:46.670Z,303.67
2019-02-20T07:50:16.585Z,160.30
2019-02-20T07:52:46.901Z,339.73
2019-02-20T07:55:18.353Z,105.20
2019-02-20T07:57:49.267Z,465.77
2019-02-20T08:00:23.727Z,188.30
2019-02-20T08:02:55.077Z,147.60
2019-02-20T08:05:25.746Z,143.77
2019-02-20T08:07:57.074Z,193.95
2019-02-20T08:10:26.752Z,129.70
2019-02-20T08:12:58.067Z,279.40
2019-02-20T08:15:28.689Z,331.30
2019-02-20T08:17:57.770Z,399.67
2019-02-20T08:20:36.599Z,124.33
2019-02-20T08:23:06.980Z,214.23
2019-02-20T08:25:38.469Z,158.27
2019-02-20T08:28:10.053Z,433.33
2019-02-20T08:30:42.648Z,279.07
2019-02-20T08:33:12.624Z,198.73
2019-02-20T08:35:42.639Z,161.30
2019-02-20T08:40:48.030Z,143.90
2019-02-20T08:43:18.062Z,84.73
2019-02-20T08:45:48.625Z,65.53
2019-02-20T08:48:20.024Z,80.63
2019-02-20T08:50:50.099Z,129.73
2019-02-20T08:53:22.188Z,112.20
2019-02-20T08:55:52.142Z,148.40
2019-02-20T08:58:22.690Z,103.30
2019-02-20T09:00:52.688Z,138.13
2019-02-20T09:03:22.433Z,141.83
2019-02-20T09:05:54.900Z,87.30
2019-02-20T09:08:25.298Z,232.75
2019-02-20T09:10:56.727Z,93.67
2019-02-20T09:13:28.151Z,130.80
2019-02-20T09:15:57.955Z,148.93
2019-02-20T09:18:28.393Z,104.07
2019-02-20T09:20:59.245Z,244.23
2019-02-20T09:23:30.073Z,167.00
2019-02-20T09:26:00.849Z,230.27
2019-02-20T09:28:32.275Z,121.13
2019-02-20T09:31:03.703Z,135.27
2019-02-20T09:33:35.153Z,162.63
2019-02-20T09:36:05.902Z,90.00
2019-02-20T09:38:35.573Z,80.05
2019-02-20T09:41:08.327Z,77.50
2019-02-20T09:43:37.382Z,125.97
2019-02-20T09:46:07.701Z,152.23
2019-02-20T09:48:41.207Z,61.10
2019-02-20T09:51:11.662Z,94.47
2019-02-20T09:53:41.311Z,75.10
2019-02-20T09:56:12.496Z,83.40
2019-02-20T09:58:43.765Z,90.30
2019-02-20T10:01:14.133Z,60.13
2019-02-20T10:03:44.708Z,60.93
2019-02-20T10:06:17.007Z,67.03
2019-02-20T10:08:46.613Z,86.10
2019-02-20T10:11:19.834Z,67.30
2019-02-20T10:13:52.193Z,84.60
2019-02-20T10:16:22.504Z,75.90
2019-02-20T10:18:53.776Z,85.00
2019-02-20T10:21:24.112Z,71.13
2019-02-20T10:23:55.523Z,55.73
2019-02-20T10:26:28.086Z,54.40
2019-02-20T10:28:59.600Z,64.80
2019-02-20T10:31:32.813Z,66.13
2019-02-20T10:34:06.837Z,50.88
2019-02-20T10:36:37.224Z,47.27
2019-02-20T10:39:08.104Z,55.90
2019-02-20T10:41:38.772Z,49.47
2019-02-20T10:44:08.648Z,46.23
2019-02-20T10:46:38.770Z,50.73
2019-02-20T10:49:15.795Z,66.53
2019-02-20T10:51:45.831Z,53.60
2019-02-20T10:54:15.518Z,55.10
2019-02-20T10:56:44.574Z,58.43
2019-02-20T10:59:16.784Z,57.53
2019-02-20T11:01:46.576Z,54.83
2019-02-20T11:04:17.906Z,58.50
2019-02-20T11:06:47.987Z,55.87
2019-02-20T11:09:19.419Z,59.18
2019-02-20T11:11:49.066Z,56.83
2019-02-20T11:14:18.891Z,51.97
2019-02-20T11:16:48.695Z,51.53
2019-02-20T11:19:18.273Z,53.83
2019-02-20T11:21:46.551Z,56.70
2019-02-20T11:24:14.803Z,63.63
2019-02-20T11:26:54.051Z,64.50
2019-02-20T11:29:16.863Z,59.10
2019-02-20T11:31:46.495Z,54.67
2019-02-20T11:34:16.330Z,63.53
2019-02-20T11:36:49.360Z,55.70
2019-02-20T11:39:18.544Z,45.03
2019-02-20T11:41:47.625Z,41.23
2019-02-20T11:44:20.959Z,43.37
2019-02-20T11:46:53.265Z,47.87
2019-02-20T11:49:24.506Z,40.57
2019-02-20T11:51:54.307Z,40.40
2019-02-20T11:54:24.610Z,47.17
2019-02-20T11:56:52.890Z,43.07
2019-02-20T11:59:23.734Z,46.00
2019-02-20T12:01:54.930Z,45.75
2019-02-20T12:04:25.678Z,52.27
2019-02-20T12:06:55.424Z,45.53
2019-02-20T12:09:26.836Z,47.87
2019-02-20T12:11:56.510Z,45.03
2019-02-20T12:14:25.631Z,49.10
2019-02-20T12:16:57.106Z,56.13
2019-02-20T12:19:29.417Z,57.30
2019-02-20T12:22:00.752Z,41.37
2019-02-20T12:24:30.592Z,47.63
2019-02-20T12:27:01.934Z,50.60
2019-02-20T12:29:33.262Z,51.13
2019-02-20T12:34:38.606Z,39.67
2019-02-20T12:37:11.368Z,50.70
2019-02-20T12:39:42.719Z,48.50
2019-02-20T12:42:15.115Z,46.20
2019-02-20T12:44:44.213Z,47.97
2019-02-20T12:47:15.577Z,46.40
2019-02-20T12:49:46.414Z,47.90
2019-02-20T12:52:17.745Z,48.83
2019-02-20T12:54:49.029Z,50.43
2019-02-20T12:57:18.783Z,47.27
2019-02-20T12:59:48.514Z,47.23
2019-02-20T13:02:16.797Z,46.97
2019-02-20T13:04:48.182Z,50.40
2019-02-20T13:07:17.822Z,44.47
2019-02-20T13:09:50.092Z,45.87
2019-02-20T13:22:42.346Z,47.67
2019-02-20T13:25:14.391Z,41.03
2019-02-20T13:27:45.613Z,46.53
2019-02-20T13:30:16.561Z,40.83
2019-02-20T13:32:51.025Z,37.17
2019-02-20T13:35:21.904Z,33.33
2019-02-20T13:37:52.687Z,33.65
2019-02-20T13:40:21.766Z,37.17
2019-02-20T13:42:52.434Z,37.60
2019-02-20T13:45:23.784Z,35.90
2019-02-20T13:47:54.708Z,43.68
2019-02-20T13:50:25.843Z,36.97
2019-02-20T13:52:55.951Z,42.80
2019-02-20T13:55:34.239Z,47.53
2019-02-20T13:58:00.905Z,40.17
2019-02-20T14:00:30.792Z,54.87
2019-02-20T14:03:04.082Z,41.00
2019-02-20T14:05:34.545Z,40.07
2019-02-20T14:08:05.845Z,42.33
2019-02-20T14:10:35.503Z,39.10
2019-02-20T14:13:10.746Z,40.03
2019-02-20T14:15:42.197Z,34.73
2019-02-20T14:18:12.619Z,40.67
2019-02-20T14:20:43.192Z,49.40
2019-02-20T14:23:13.578Z,40.53
2019-02-20T14:25:44.520Z,48.57
2019-02-20T14:28:14.456Z,52.57
2019-02-20T14:30:45.657Z,41.67
2019-02-20T14:33:16.107Z,46.53
2019-02-20T14:35:46.696Z,53.73
2019-02-20T14:38:16.556Z,49.07
2019-02-20T14:40:46.160Z,40.23
2019-02-20T14:43:17.626Z,42.17
2019-02-20T14:45:48.560Z,46.47
2019-02-20T14:48:19.213Z,43.80
2019-02-20T14:50:49.512Z,41.83
2019-02-20T14:53:19.464Z,46.43
2019-02-20T14:55:50.890Z,45.97
2019-02-20T14:58:21.513Z,51.70
2019-02-20T15:00:51.915Z,55.33
2019-02-20T15:03:21.576Z,59.23
2019-02-20T15:05:51.208Z,47.83
2019-02-20T15:08:22.740Z,47.67
2019-02-20T15:10:54.130Z,49.50
2019-02-20T15:13:26.568Z,44.53
2019-02-20T15:15:59.888Z,51.30
2019-02-20T15:18:30.076Z,48.97
2019-02-20T15:21:00.080Z,42.77
2019-02-20T15:23:30.503Z,49.13
2019-02-20T15:26:00.592Z,51.02
2019-02-20T15:28:30.252Z,50.57
2019-02-20T15:31:02.210Z,38.43
2019-02-20T15:33:31.879Z,42.03
2019-02-20T15:38:37.230Z,41.80
2019-02-20T15:41:07.878Z,44.70
2019-02-20T15:43:36.154Z,39.83
2019-02-20T15:48:41.558Z,42.77
2019-02-20T15:51:24.390Z,45.47
2019-02-20T15:53:55.900Z,35.50
2019-02-20T15:56:26.674Z,41.93
2019-02-20T15:58:56.551Z,42.87
2019-02-20T16:01:27.405Z,44.10
2019-02-20T16:03:58.827Z,37.65
2019-02-20T16:06:29.631Z,48.00
2019-02-20T16:08:59.467Z,37.67
2019-02-20T16:11:28.247Z,36.70
2019-02-20T16:13:56.542Z,38.13
2019-02-20T16:16:28.219Z,43.57
2019-02-20T16:18:59.785Z,42.10
2019-02-20T16:21:31.248Z,40.07
2019-02-20T16:24:01.277Z,36.88
2019-02-20T16:26:32.652Z,40.17
2019-02-20T16:29:03.412Z,38.07
2019-02-20T16:31:35.634Z,41.20
2019-02-20T16:34:06.356Z,42.03
2019-02-20T16:36:34.935Z,47.37
2019-02-20T16:39:06.858Z,38.63
2019-02-20T16:41:36.713Z,38.13
2019-02-20T16:44:07.115Z,41.70
2019-02-20T16:46:37.200Z,40.67
2019-02-20T16:49:08.693Z,37.50
2019-02-20T16:51:38.287Z,39.17
2019-02-20T16:54:08.713Z,46.17
2019-02-20T16:56:39.409Z,40.03
2019-02-20T16:59:10.233Z,41.30
2019-02-20T17:01:41.640Z,41.70
2019-02-20T17:04:12.433Z,43.50
2019-02-20T17:06:42.256Z,44.30
2019-02-20T17:09:13.108Z,49.23
2019-02-20T17:11:44.502Z,44.37
2019-02-20T17:14:19.061Z,44.90
2019-02-20T17:16:52.368Z,40.70
2019-02-20T17:19:24.210Z,37.20
2019-02-20T17:21:55.570Z,46.83
2019-02-20T17:24:26.379Z,42.77
2019-02-20T17:26:57.060Z,43.30
2019-02-20T17:29:28.273Z,55.43
2019-02-20T17:31:59.223Z,43.87
2019-02-20T17:34:29.151Z,44.73
2019-02-20T17:36:59.061Z,42.03
2019-02-20T17:39:31.024Z,40.53
2019-02-20T17:42:01.005Z,36.90
2019-02-20T17:44:32.337Z,43.27
2019-02-20T17:47:08.433Z,45.47
2019-02-20T17:49:37.998Z,38.80
2019-02-20T17:52:11.222Z,42.23
2019-02-20T17:54:42.525Z,44.67
2019-02-20T17:57:15.824Z,39.47
2019-02-20T17:59:46.477Z,42.33
2019-02-20T18:02:17.744Z,43.27
2019-02-20T18:04:50.417Z,40.10
2019-02-20T18:07:21.952Z,42.43
2019-02-20T18:09:53.327Z,45.03
2019-02-20T18:12:25.462Z,41.63
2019-02-20T18:14:54.794Z,41.00
2019-02-20T18:17:23.918Z,48.10
2019-02-20T18:19:54.223Z,43.92
2019-02-20T18:22:23.909Z,44.60
2019-02-20T18:24:52.973Z,42.33
2019-02-20T18:27:22.072Z,48.10
2019-02-20T18:29:51.774Z,42.98
2019-02-20T18:32:23.028Z,46.27
2019-02-20T18:34:54.428Z,46.33
2019-02-20T18:37:24.984Z,41.40
2019-02-20T18:39:56.424Z,46.23
2019-02-20T18:42:26.534Z,46.37
2019-02-20T18:44:57.431Z,46.73
2019-02-20T18:47:30.240Z,49.77
2019-02-20T18:50:00.980Z,42.13
2019-02-20T18:52:32.277Z,47.07
2019-02-20T18:55:06.175Z,50.20
2019-02-20T18:57:35.310Z,50.13
2019-02-20T19:00:05.003Z,48.37
2019-02-20T19:02:36.144Z,46.43
2019-02-20T19:05:07.770Z,40.20
2019-02-20T19:07:38.235Z,41.23
2019-02-20T19:10:14.364Z,46.88
2019-02-20T19:12:46.748Z,50.27
2019-02-20T19:15:28.880Z,46.17
2019-02-20T19:18:02.274Z,46.40
2019-02-20T19:20:37.423Z,42.17
2019-02-20T19:23:16.840Z,41.83
2019-02-20T19:25:53.386Z,45.07
2019-02-20T19:28:29.787Z,42.23
2019-02-20T19:31:37.753Z,43.13
2019-02-20T19:34:21.556Z,52.10
2019-02-20T19:37:20.900Z,44.83
2019-02-20T19:40:13.270Z,46.63
2019-02-20T19:43:12.719Z,49.05
2019-02-20T19:46:05.330Z,48.47
2019-02-20T19:48:52.586Z,42.30
2019-02-20T19:51:42.133Z,42.60
2019-02-20T19:54:24.206Z,47.23
2019-02-20T19:56:58.082Z,47.60
2019-02-20T19:59:40.513Z,43.77
2019-02-20T20:02:28.619Z,45.23
2019-02-20T20:05:11.159Z,51.67
2019-02-20T20:07:46.152Z,46.30
2019-02-20T20:10:21.899Z,43.43
2019-02-20T20:13:19.452Z,44.93
2019-02-20T20:16:14.555Z,48.85
2019-02-20T20:19:08.051Z,49.60
2019-02-20T20:21:59.335Z,51.80
2019-02-20T20:24:44.069Z,44.77
2019-02-20T20:27:25.940Z,49.33
2019-02-20T20:30:15.587Z,42.05
2019-02-20T20:32:56.901Z,46.93
2019-02-20T20:35:53.870Z,47.63
2019-02-20T20:38:40.948Z,48.37
2019-02-20T20:41:35.261Z,43.47
2019-02-20T20:44:12.954Z,43.40
2019-02-20T20:46:51.178Z,47.03
2019-02-20T20:49:34.483Z,41.60
2019-02-20T20:52:09.611Z,48.13
2019-02-20T20:55:15.811Z,54.63
2019-02-20T20:57:53.854Z,47.17
2019-02-20T21:00:46.196Z,48.67
2019-02-20T21:03:22.641Z,43.50
2019-02-20T21:06:11.920Z,54.15
2019-02-20T21:08:45.488Z,40.33
2019-02-20T21:11:27.439Z,39.57
2019-02-20T21:14:11.987Z,45.03
2019-02-20T21:16:50.802Z,43.63
2019-02-20T21:19:42.166Z,46.70
2019-02-20T21:22:27.121Z,36.73
2019-02-20T21:27:43.641Z,46.43
2019-02-20T21:30:39.634Z,39.97
2019-02-20T21:33:21.415Z,37.73
2019-02-20T21:35:56.522Z,42.35
2019-02-20T21:38:53.557Z,39.63
2019-02-20T21:41:25.945Z,43.45
2019-02-20T21:44:04.236Z,50.17
2019-02-20T21:47:12.751Z,45.83
2019-02-20T21:52:52.213Z,40.27
2019-02-20T21:55:30.218Z,45.70
2019-02-20T21:58:05.414Z,40.98
2019-02-20T22:00:40.362Z,44.03
2019-02-20T22:03:15.690Z,38.43
2019-02-20T22:05:58.496Z,40.90
2019-02-20T22:08:49.973Z,41.70
2019-02-20T22:11:35.418Z,40.73
2019-02-20T22:14:33.938Z,45.33
2019-02-20T22:17:22.004Z,41.47
2019-02-20T22:20:03.284Z,37.23
2019-02-20T22:22:48.531Z,38.07
2019-02-20T22:25:36.786Z,40.70
2019-02-20T22:28:37.893Z,40.70
2019-02-20T22:31:40.660Z,40.47
2019-02-20T22:34:18.580Z,35.23
2019-02-20T22:37:09.761Z,38.60
2019-02-20T22:40:04.023Z,37.97
2019-02-20T22:42:40.295Z,40.37
2019-02-20T22:45:16.330Z,37.27
2019-02-20T22:47:57.210Z,37.87
2019-02-20T22:50:55.373Z,38.33
2019-02-20T22:53:28.298Z,37.67
2019-02-20T22:56:12.583Z,38.73
2019-02-20T22:58:54.032Z,40.43
2019-02-20T23:01:41.328Z,42.53
2019-02-20T23:04:14.859Z,43.08
2019-02-20T23:06:48.237Z,38.27
2019-02-20T23:09:36.438Z,40.47
2019-02-20T23:12:09.968Z,39.47
2019-02-20T23:14:58.931Z,37.20
2019-02-20T23:17:30.413Z,39.03
2019-02-20T23:20:00.842Z,45.63
2019-02-20T23:22:31.252Z,40.73
2019-02-20T23:25:03.283Z,45.67
2019-02-20T23:27:33.739Z,43.73
2019-02-20T23:30:12.535Z,40.83
2019-02-20T23:32:38.161Z,37.97
2019-02-20T23:35:09.777Z,43.60
2019-02-20T23:37:40.465Z,42.50
2019-02-20T23:40:12.372Z,35.97
2019-02-20T23:42:44.752Z,41.10
2019-02-20T23:45:14.629Z,44.80
2019-02-20T23:47:48.841Z,40.80
2019-02-20T23:50:18.986Z,44.47
2019-02-20T23:52:50.036Z,45.80
2019-02-20T23:55:21.399Z,43.80
2019-02-20T23:57:52.752Z,43.60
